Time;durP1;ratioP1;P1;durP2;ratioP2;P2;SDS_P1;SDS_P2;PMS_P1;PMS_P2;Temp;Humidity;BMP_temperature;BMP_pressure;BME280_temperature;BME280_humidity;BME280_pressure;Samples;Min_cycle;Max_cycle;Signal;HPM_P1;HPM_P2
2022/02/10 00:22:16;;;;;;;7.85;5.10;;;;;;;0.03;100.00;101343.45;1688230;83;21128;-84
2022/02/10 00:25:10;;;;;;;9.65;5.12;;;;;;;0.02;100.00;101336.64;1677780;84;21054;-88
2022/02/10 00:35:37;;;;;;;5.17;4.12;;;;;;;-0.07;100.00;101334.25;1710049;83;21140;-85
2022/02/10 00:37:59;;;;;;;7.15;4.60;;;;;;;-0.12;100.00;101331.78;1707348;82;21102;-86
2022/02/10 00:40:31;;;;;;;8.18;4.42;;;;;;;-0.16;100.00;101336.56;1708043;82;21056;-85
2022/02/10 00:43:00;;;;;;;5.83;4.03;;;;;;;-0.18;100.00;101338.30;1708455;83;21029;-86
2022/02/10 00:45:30;;;;;;;6.60;4.40;;;;;;;-0.17;100.00;101341.27;1710959;81;21090;-85
2022/02/10 00:48:01;;;;;;;6.93;4.87;;;;;;;-0.17;100.00;101347.67;1732258;82;21049;-86
2022/02/10 00:50:28;;;;;;;6.30;4.08;;;;;;;-0.21;100.00;101349.90;1723300;81;21090;-85
2022/02/10 00:53:08;;;;;;;11.00;5.05;;;;;;;-0.24;100.00;101349.49;1734945;82;21066;-85
2022/02/10 00:55:34;;;;;;;9.53;5.33;;;;;;;-0.23;100.00;101341.39;1726800;81;21009;-85
2022/02/10 00:58:05;;;;;;;12.37;5.40;;;;;;;-0.22;100.00;101332.39;1702616;82;21281;-85
2022/02/10 01:02:13;;;;;;;8.28;5.42;;;;;;;-0.17;100.00;101333.59;1741973;81;21167;-87
2022/02/10 01:14:02;;;;;;;7.95;5.17;;;;;;;-0.19;100.00;101346.43;1741035;81;21532;-85
2022/02/10 01:30:10;;;;;;;8.15;6.03;;;;;;;-0.23;100.00;101338.84;1710390;82;21371;-86
2022/02/10 01:32:41;;;;;;;9.38;5.97;;;;;;;-0.23;100.00;101336.27;1710562;82;21173;-85
2022/02/10 01:35:12;;;;;;;9.25;5.83;;;;;;;-0.26;100.00;101342.72;1720052;82;21094;-88
2022/02/10 01:37:39;;;;;;;10.53;6.45;;;;;;;-0.28;100.00;101354.27;1680478;82;21799;-86
2022/02/10 01:40:19;;;;;;;12.95;7.10;;;;;;;-0.35;100.00;101357.37;1701392;83;21338;-86
2022/02/10 02:04:23;;;;;;;13.95;8.43;;;;;;;-0.64;100.00;101328.44;1691776;83;21898;-85
2022/02/10 02:06:55;;;;;;;17.10;9.15;;;;;;;-0.65;100.00;101333.17;1721742;83;21097;-87
2022/02/10 02:09:22;;;;;;;13.50;8.48;;;;;;;-0.66;100.00;101324.64;1679108;82;21112;-85
2022/02/10 02:11:53;;;;;;;14.45;7.90;;;;;;;-0.64;100.00;101319.48;1701353;82;21076;-86
2022/02/10 02:14:24;;;;;;;13.43;8.60;;;;;;;-0.60;100.00;101328.81;1701284;83;21441;-87
2022/02/10 02:16:56;;;;;;;11.22;8.18;;;;;;;-0.52;100.00;101331.25;1704806;82;21163;-86
2022/02/10 02:19:24;;;;;;;17.75;8.43;;;;;;;-0.48;100.00;101329.03;1679126;83;21568;-86
2022/02/10 02:21:59;;;;;;;14.65;8.40;;;;;;;-0.46;100.00;101322.19;1678153;82;21112;-86
2022/02/10 02:24:26;;;;;;;11.57;8.10;;;;;;;-0.44;100.00;101319.14;1714935;82;21133;-85
2022/02/10 02:27:04;;;;;;;12.25;8.30;;;;;;;-0.43;100.00;101314.44;1705478;83;21181;-85
2022/02/10 02:29:44;;;;;;;14.90;9.05;;;;;;;-0.42;100.00;101321.24;1712155;83;21186;-85
2022/02/10 02:32:05;;;;;;;14.47;9.03;;;;;;;-0.44;100.00;101326.81;1704282;82;21052;-85
2022/02/10 02:40:22;;;;;;;14.00;9.08;;;;;;;-0.46;100.00;101320.91;1701588;83;21001;-85
2022/02/10 03:07:13;;;;;;;17.32;10.48;;;;;;;-0.92;100.00;101342.14;1701210;83;21518;-85
2022/02/10 03:09:42;;;;;;;19.40;10.95;;;;;;;-0.96;100.00;101348.98;1682239;83;21112;-86
2022/02/10 03:12:16;;;;;;;;;;;;;;;;;;;;;
2022/02/10 03:14:44;;;;;;;18.55;10.08;;;;;;;-0.99;100.00;101353.72;1699584;83;21597;-86
2022/02/10 03:17:45;;;;;;;19.12;11.18;;;;;;;-0.97;100.00;101350.71;1695055;83;21526;-86
2022/02/10 04:01:37;;;;;;;18.87;10.38;;;;;;;-0.88;100.00;101371.90;1673726;83;21101;-85
2022/02/10 04:16:36;;;;;;;16.42;9.68;;;;;;;-0.78;100.00;101360.66;1701683;81;21161;-85
2022/02/10 04:29:48;;;;;;;18.07;9.63;;;;;;;-0.69;100.00;101341.34;1689510;83;21907;-86
2022/02/10 04:43:07;;;;;;;41.05;21.73;;;;;;;-0.58;100.00;101333.48;1672536;83;21121;-88
2022/02/10 04:54:02;;;;;;;46.65;24.70;;;;;;;-0.42;100.00;101328.92;1731656;81;21057;-85
2022/02/10 05:07:37;;;;;;;65.42;30.92;;;;;;;0.74;100.00;101313.77;1679193;83;21631;-87
2022/02/10 05:13:08;;;;;;;71.00;36.53;;;;;;;0.91;100.00;101332.63;1754711;81;21069;-82
2022/02/10 05:35:31;;;;;;;77.05;39.27;;;;;;;1.14;100.00;101337.66;1701749;82;21179;-83
2022/02/10 05:46:21;;;;;;;63.63;35.20;;;;;;;1.02;100.00;101339.22;1714175;83;21092;-86
2022/02/10 05:54:30;;;;;;;58.02;31.73;;;;;;;1.01;100.00;101342.23;1726008;81;21071;-90
2022/02/10 06:51:23;;;;;;;21.12;12.47;;;;;;;1.72;100.00;101307.08;1677372;84;21022;-87
2022/02/10 07:05:14;;;;;;;22.55;13.43;;;;;;;1.97;100.00;101306.83;1692034;83;20986;-89
2022/02/10 07:59:29;;;;;;;25.40;11.78;;;;;;;2.25;100.00;101266.23;1739689;80;21056;-86
2022/02/10 08:04:42;;;;;;;20.37;12.28;;;;;;;2.21;100.00;101249.60;1716234;81;21857;-81
2022/02/10 09:57:56;;;;;;;42.90;26.65;;;;;;;2.02;100.00;101190.22;1742250;80;21128;-84
2022/02/10 10:03:17;;;;;;;44.18;27.90;;;;;;;1.95;100.00;101186.61;1665621;81;21053;-85
2022/02/10 10:05:58;;;;;;;43.78;28.38;;;;;;;1.92;100.00;101184.12;1736405;80;21141;-87
2022/02/10 10:14:22;;;;;;;44.10;30.08;;;;;;;1.95;100.00;101175.05;1729361;80;21114;-89
2022/02/10 10:17:05;;;;;;;44.73;31.23;;;;;;;1.97;100.00;101187.38;1718392;81;22278;-84
2022/02/10 10:56:20;;;;;;;61.00;39.20;;;;;;;1.96;100.00;101202.43;1746675;80;21091;-84
2022/02/10 11:38:44;;;;;;;54.48;34.40;;;;;;;2.25;100.00;101209.69;1756837;80;21036;-81
2022/02/10 12:38:28;;;;;;;25.27;19.37;;;;;;;2.66;100.00;101244.83;1710293;80;21152;-83
2022/02/10 14:16:26;;;;;;;36.63;26.65;;;;;;;3.16;100.00;101329.81;1738833;81;21052;-84
2022/02/10 14:18:39;;;;;;;34.23;25.60;;;;;;;3.18;100.00;101330.20;1735575;80;21835;-85
2022/02/10 14:21:12;;;;;;;35.65;26.30;;;;;;;3.14;100.00;101323.89;1743127;80;21059;-86
2022/02/10 14:26:22;;;;;;;33.55;25.43;;;;;;;3.16;100.00;101323.83;1728354;80;21162;-85
2022/02/10 14:28:35;;;;;;;36.65;25.80;;;;;;;3.15;100.00;101321.72;1737798;80;21480;-86
2022/02/10 14:31:04;;;;;;;38.70;28.67;;;;;;;3.18;100.00;101326.34;1736972;80;22238;-84
2022/02/10 14:33:35;;;;;;;33.20;26.25;;;;;;;3.17;100.00;101320.38;1698748;80;21169;-83
2022/02/10 14:36:09;;;;;;;36.45;27.00;;;;;;;3.14;100.00;101325.61;1735969;82;21181;-86
2022/02/10 14:38:44;;;;;;;35.50;25.90;;;;;;;3.18;100.00;101330.20;1722976;80;27166;-86
2022/02/10 15:17:09;;;;;;;56.50;39.10;;;;;;;3.08;100.00;101357.55;1724196;81;21705;-84
2022/02/10 15:52:09;;;;;;;43.80;34.00;;;;;;;4.20;100.00;101379.56;1672645;80;21181;-86
2022/02/10 15:54:40;;;;;;;124.10;37.15;;;;;;;4.32;100.00;101381.67;1738729;80;21061;-84
2022/02/10 16:10:59;;;;;;;58.23;34.65;;;;;;;5.30;100.00;101377.50;1739148;80;21085;-84
2022/02/10 16:14:35;;;;;;;71.37;36.00;;;;;;;5.43;100.00;101380.42;1764630;80;21493;-80
2022/02/10 16:18:49;;;;;;;80.85;45.73;;;;;;;5.62;100.00;101391.27;1733899;81;21097;-81
2022/02/10 16:21:45;;;;;;;187.05;86.15;;;;;;;5.62;100.00;101395.99;1735845;80;21643;-81
2022/02/10 16:24:19;;;;;;;384.07;167.72;;;;;;;5.65;100.00;101393.27;1713065;82;21516;-81
2022/02/10 16:26:59;;;;;;;234.67;111.57;;;;;;;5.66;100.00;101401.41;1751280;80;21122;-82
2022/02/10 16:29:29;;;;;;;148.43;83.78;;;;;;;5.46;100.00;101406.57;1745206;80;21016;-82
2022/02/10 16:31:57;;;;;;;71.90;48.23;;;;;;;5.17;100.00;101403.41;1740397;80;21180;-85
2022/02/10 16:34:24;;;;;;;64.72;47.43;;;;;;;4.79;100.00;101398.00;1711886;82;21833;-86
2022/02/10 16:36:54;;;;;;;62.48;44.50;;;;;;;4.29;100.00;101399.00;1736679;80;21080;-84
2022/02/10 16:39:20;;;;;;;67.70;42.35;;;;;;;3.85;100.00;101402.25;1738278;80;21591;-84
2022/02/10 16:41:50;;;;;;;61.45;40.83;;;;;;;3.52;100.00;101403.34;1734687;81;21129;-86
2022/02/10 16:44:18;;;;;;;55.60;37.98;;;;;;;3.27;100.00;101400.70;1744122;80;21153;-87
2022/02/10 16:46:46;;;;;;;53.48;36.63;;;;;;;3.07;100.00;101407.77;1721085;80;21059;-87
2022/02/10 16:49:17;;;;;;;51.88;37.88;;;;;;;2.92;100.00;101409.09;1740226;81;21831;-88
2022/02/10 16:51:45;;;;;;;55.70;38.00;;;;;;;2.80;100.00;101411.13;1727635;80;21050;-86
2022/02/10 16:54:30;;;;;;;52.25;34.78;;;;;;;2.72;100.00;101404.55;1727801;80;21578;-86
2022/02/10 16:57:03;;;;;;;50.52;36.35;;;;;;;2.67;100.00;101403.39;1744027;80;21155;-84
2022/02/10 17:28:55;;;;;;;53.55;34.88;;;;;;;2.28;100.00;101412.19;1741487;81;21101;-87
2022/02/10 17:31:41;;;;;;;51.13;35.73;;;;;;;2.25;100.00;101405.01;1694057;82;21085;-85
2022/02/10 17:36:38;;;;;;;51.48;36.08;;;;;;;2.25;100.00;101401.98;1733500;80;21807;-86
2022/02/10 17:55:24;;;;;;;45.55;32.13;;;;;;;2.39;100.00;101382.78;1739537;80;21328;-86
2022/02/10 17:57:52;;;;;;;47.33;33.13;;;;;;;2.38;100.00;101392.20;1732303;80;21039;-85
2022/02/10 18:00:23;;;;;;;46.53;32.88;;;;;;;2.36;100.00;101394.00;1722239;80;21053;-84
2022/02/10 18:02:48;;;;;;;45.90;32.15;;;;;;;2.36;100.00;101406.84;1733318;81;21046;-89
2022/02/10 18:08:03;;;;;;;45.35;31.93;;;;;;;2.36;100.00;101401.70;1727643;81;21488;-83
2022/02/10 18:15:49;;;;;;;42.25;30.45;;;;;;;2.43;100.00;101407.50;1752535;80;21247;-83
2022/02/10 18:18:22;;;;;;;52.80;34.33;;;;;;;2.42;100.00;101409.24;1742657;80;21079;-83
2022/02/10 18:20:49;;;;;;;46.13;33.35;;;;;;;2.43;100.00;101403.22;1730944;80;21535;-87
2022/02/10 18:23:19;;;;;;;49.53;34.10;;;;;;;2.43;100.00;101403.22;1699869;81;21520;-85
2022/02/10 18:28:35;;;;;;;51.23;34.73;;;;;;;2.42;100.00;101403.23;1730031;80;21469;-84
2022/02/10 18:34:06;;;;;;;46.13;32.33;;;;;;;2.42;100.00;101403.23;1730974;80;21476;-84
2022/02/10 18:37:55;;;;;;;49.88;34.48;;;;;;;2.40;100.00;101391.72;1738554;80;21085;-84
2022/02/10 19:09:09;;;;;;;50.08;30.82;;;;;;;2.47;100.00;101396.25;1726062;80;21492;-87
2022/02/10 19:11:32;;;;;;;48.17;31.60;;;;;;;2.47;100.00;101396.25;1755664;81;21070;-85
2022/02/10 19:14:04;;;;;;;42.93;28.75;;;;;;;2.51;100.00;101402.98;1744319;80;21513;-85
2022/02/10 19:16:30;;;;;;;42.38;28.73;;;;;;;2.52;100.00;101409.36;1744886;80;21016;-84
2022/02/10 19:18:58;;;;;;;40.98;28.98;;;;;;;2.52;100.00;101405.50;1753964;80;21065;-86
2022/02/10 19:21:31;;;;;;;49.13;30.17;;;;;;;2.55;100.00;101410.16;1758899;80;21106;-87
2022/02/10 19:23:59;;;;;;;44.58;30.27;;;;;;;2.56;100.00;101410.14;1761767;80;21055;-84
2022/02/10 19:26:26;;;;;;;42.53;29.45;;;;;;;2.59;100.00;101411.31;1764030;80;21038;-85
2022/02/10 19:28:54;;;;;;;39.25;28.12;;;;;;;2.57;100.00;101407.94;1750998;80;21022;-85
2022/02/10 19:31:23;;;;;;;47.03;29.57;;;;;;;2.57;100.00;101405.37;1717077;80;21721;-84
2022/02/10 19:33:52;;;;;;;41.05;29.05;;;;;;;2.57;100.00;101398.94;1770014;80;22077;-84
2022/02/10 19:36:19;;;;;;;45.73;31.60;;;;;;;2.57;100.00;101398.94;1755972;80;21066;-85
2022/02/10 19:38:47;;;;;;;48.17;30.80;;;;;;;2.57;100.00;101397.66;1747558;81;21547;-85
2022/02/10 19:41:15;;;;;;;46.50;31.07;;;;;;;2.58;100.00;101403.66;1739742;80;21054;-85
2022/02/10 19:43:43;;;;;;;48.00;30.82;;;;;;;2.59;100.00;101401.03;1747066;80;21142;-85
2022/02/10 19:46:11;;;;;;;51.08;32.53;;;;;;;2.60;100.00;101401.89;1737128;80;21070;-85
2022/02/10 19:48:43;;;;;;;50.12;32.30;;;;;;;2.62;100.00;101400.09;1757538;80;21033;-85
2022/02/10 19:51:10;;;;;;;53.13;34.30;;;;;;;2.65;100.00;101399.56;1738012;80;22164;-86
2022/02/10 19:53:37;;;;;;;51.13;33.38;;;;;;;2.67;100.00;101402.11;1758157;80;21109;-85
2022/02/10 19:56:09;;;;;;;54.20;33.98;;;;;;;2.71;100.00;101395.97;1755999;80;21700;-87
2022/02/10 19:58:36;;;;;;;56.00;34.92;;;;;;;2.71;100.00;101395.97;1715713;81;21711;-87
2022/02/10 20:01:05;;;;;;;55.55;34.53;;;;;;;2.75;100.00;101391.15;1738801;81;21030;-86
2022/02/10 20:03:39;;;;;;;55.93;35.77;;;;;;;2.80;100.00;101394.41;1740443;80;21076;-86
2022/02/10 20:06:04;;;;;;;58.87;36.90;;;;;;;2.87;100.00;101395.08;1724201;81;21081;-87
2022/02/10 20:08:32;;;;;;;57.60;37.25;;;;;;;2.89;100.00;101376.56;1741780;80;21021;-86
2022/02/10 20:10:59;;;;;;;62.90;37.93;;;;;;;2.92;100.00;101387.23;1725326;81;21164;-87
2022/02/10 20:13:32;;;;;;;65.22;39.85;;;;;;;2.93;100.00;101387.17;1734132;81;21030;-85
2022/02/10 20:16:06;;;;;;;62.75;37.85;;;;;;;2.93;100.00;101385.02;1715660;82;21081;-85
2022/02/10 20:18:30;;;;;;;59.08;36.80;;;;;;;2.92;100.00;101389.80;1727784;80;21555;-85
2022/02/10 20:20:58;;;;;;;58.42;34.88;;;;;;;2.93;100.00;101379.87;1742230;81;21057;-87
2022/02/10 20:23:27;;;;;;;52.17;34.10;;;;;;;2.91;100.00;101378.64;1738697;81;21139;-85
2022/02/10 20:25:54;;;;;;;56.15;35.03;;;;;;;2.91;100.00;101379.11;1744352;80;21007;-85
2022/02/10 20:28:23;;;;;;;59.40;36.00;;;;;;;2.91;100.00;101380.39;1766040;80;21045;-85
2022/02/10 20:30:50;;;;;;;57.15;36.53;;;;;;;2.91;100.00;101384.25;1741171;81;21067;-85
2022/02/10 20:33:21;;;;;;;58.35;36.88;;;;;;;2.90;100.00;101382.56;1753393;80;21034;-85
2022/02/10 20:35:50;;;;;;;52.13;35.08;;;;;;;2.89;100.00;101377.84;1744433;80;21111;-85
2022/02/10 20:38:18;;;;;;;56.55;36.05;;;;;;;2.88;100.00;101380.05;1755417;80;21019;-86
2022/02/10 20:40:49;;;;;;;54.08;36.17;;;;;;;2.88;100.00;101380.47;1729542;82;21047;-85
2022/02/10 20:43:16;;;;;;;50.65;35.55;;;;;;;2.87;100.00;101380.08;1686656;83;21080;-85
2022/02/10 20:45:51;;;;;;;51.70;35.65;;;;;;;2.82;100.00;101381.07;1715259;82;21097;-86
2022/02/10 20:48:13;;;;;;;54.30;34.45;;;;;;;2.79;100.00;101392.72;1709958;82;21158;-85
2022/02/10 20:50:40;;;;;;;60.35;36.73;;;;;;;2.75;100.00;101388.58;1748957;80;21073;-86
2022/02/10 20:53:08;;;;;;;57.50;36.95;;;;;;;2.75;100.00;101393.72;1749067;80;21201;-86
2022/02/10 20:55:35;;;;;;;58.45;34.65;;;;;;;2.79;100.00;101391.90;1744261;81;21545;-87
2022/02/10 20:58:03;;;;;;;58.65;35.83;;;;;;;2.81;100.00;101391.38;1739902;81;21053;-86
2022/02/10 21:00:32;;;;;;;62.40;38.75;;;;;;;2.80;100.00;101391.02;1737995;82;22026;-87
2022/02/10 21:02:59;;;;;;;59.60;36.90;;;;;;;2.80;100.00;101399.56;1738715;82;21008;-87
2022/02/10 21:05:40;;;;;;;54.73;34.73;;;;;;;2.81;100.00;101406.39;1714526;81;21074;-86
2022/02/10 21:08:11;;;;;;;52.88;34.60;;;;;;;2.81;100.00;101398.67;1707772;81;21131;-87
2022/02/10 21:10:38;;;;;;;51.25;35.38;;;;;;;2.83;100.00;101399.91;1730082;82;21032;-87
2022/02/10 21:13:09;;;;;;;54.23;34.85;;;;;;;2.84;100.00;101397.27;1742626;80;22036;-88
2022/02/10 21:15:42;;;;;;;55.88;36.75;;;;;;;2.87;100.00;101395.51;1695591;81;21101;-87
2022/02/10 21:18:07;;;;;;;56.40;34.53;;;;;;;2.88;100.00;101406.20;1719642;81;21442;-86
2022/02/10 21:20:37;;;;;;;56.10;35.78;;;;;;;2.88;100.00;101407.48;1738170;81;21169;-86
2022/02/10 21:25:46;;;;;;;65.47;39.50;;;;;;;2.83;100.00;101407.20;1719009;80;21803;-85
2022/02/10 21:28:21;;;;;;;64.67;39.45;;;;;;;2.80;100.00;101407.27;1762112;80;21121;-86
2022/02/10 21:30:46;;;;;;;59.88;37.85;;;;;;;2.79;100.00;101408.16;1755919;80;21078;-87
2022/02/10 21:33:24;;;;;;;61.97;37.83;;;;;;;2.79;100.00;101402.19;1750307;80;21015;-86
2022/02/10 21:38:20;;;;;;;67.58;40.03;;;;;;;2.73;100.00;101407.06;1745643;80;21352;-87
2022/02/10 21:57:20;;;;;;;52.00;32.78;;;;;;;2.68;100.00;101387.91;1736023;81;21054;-86
2022/02/10 22:03:18;;;;;;;47.98;31.82;;;;;;;2.71;100.00;101385.68;1737528;81;21085;-87
2022/02/10 22:10:17;;;;;;;51.37;32.10;;;;;;;2.71;100.00;101380.53;1733521;81;21042;-87
2022/02/10 22:20:58;;;;;;;53.53;32.43;;;;;;;2.79;100.00;101372.15;1713935;81;21047;-87
2022/02/10 22:23:20;;;;;;;55.80;33.48;;;;;;;2.83;100.00;101381.90;1736010;81;21618;-88
2022/02/10 22:25:48;;;;;;;60.08;37.93;;;;;;;2.83;100.00;101375.05;1710047;81;21046;-87
2022/02/10 22:31:19;;;;;;;53.80;33.30;;;;;;;2.84;100.00;101377.98;1742101;81;21158;-86
2022/02/10 22:33:42;;;;;;;56.50;35.92;;;;;;;2.86;100.00;101381.81;1691362;82;21050;-86
2022/02/10 22:35:55;;;;;;;61.50;37.67;;;;;;;2.86;100.00;101380.53;1716864;82;21113;-87
2022/02/10 22:38:22;;;;;;;56.73;36.95;;;;;;;2.88;100.00;101377.90;1740578;82;21193;-86
2022/02/10 22:41:04;;;;;;;58.90;37.05;;;;;;;2.88;100.00;101373.61;1646439;84;21147;-85
2022/02/10 22:43:29;;;;;;;53.58;34.78;;;;;;;2.88;100.00;101374.05;1704314;83;21233;-86
2022/02/10 22:45:57;;;;;;;53.78;32.78;;;;;;;2.84;100.00;101377.16;1679962;83;21030;-86
2022/02/10 22:48:25;;;;;;;59.70;35.60;;;;;;;2.82;100.00;101384.06;1726151;81;21456;-86
2022/02/10 22:50:53;;;;;;;50.75;34.45;;;;;;;2.83;100.00;101396.91;1765456;80;22026;-86
2022/02/10 22:53:21;;;;;;;58.30;36.35;;;;;;;2.83;100.00;101402.05;1751344;81;21121;-85
2022/02/10 22:55:48;;;;;;;52.33;34.23;;;;;;;2.83;100.00;101398.62;1758310;80;21794;-86
2022/02/10 22:58:15;;;;;;;48.65;33.42;;;;;;;2.81;100.00;101398.67;1757488;80;21076;-86
2022/02/10 23:00:47;;;;;;;47.78;33.25;;;;;;;2.81;100.00;101401.67;1746935;80;21090;-88
2022/02/10 23:03:22;;;;;;;49.93;34.40;;;;;;;2.82;100.00;101402.94;1760400;80;20996;-86
2022/02/10 23:05:51;;;;;;;48.80;33.18;;;;;;;2.80;100.00;101398.27;1747646;80;21192;-86
2022/02/10 23:08:23;;;;;;;56.75;36.40;;;;;;;2.82;100.00;101404.22;1736165;81;21046;-86
2022/02/10 23:10:52;;;;;;;52.70;36.63;;;;;;;2.80;100.00;101391.84;1740518;80;21519;-86
2022/02/10 23:13:27;;;;;;;52.03;34.95;;;;;;;2.80;100.00;101391.84;1748391;80;21062;-87
2022/02/10 23:15:55;;;;;;;47.58;33.73;;;;;;;2.80;100.00;101398.73;1728428;81;21026;-87
2022/02/10 23:18:29;;;;;;;52.48;34.00;;;;;;;2.80;100.00;101393.59;1734798;80;21027;-88
2022/02/10 23:21:00;;;;;;;56.10;36.95;;;;;;;2.80;100.00;101390.55;1740575;81;21818;-87
2022/02/10 23:23:30;;;;;;;53.08;36.30;;;;;;;2.77;100.00;101389.34;1734645;80;21546;-87
2022/02/10 23:26:00;;;;;;;53.60;37.48;;;;;;;2.77;100.00;101389.34;1754274;81;21047;-87
2022/02/10 23:28:33;;;;;;;55.63;37.30;;;;;;;2.79;100.00;101399.61;1729816;81;21089;-86
2022/02/10 23:31:02;;;;;;;54.67;37.85;;;;;;;2.79;100.00;101410.73;1767009;80;21575;-87
2022/02/10 23:33:33;;;;;;;59.77;35.85;;;;;;;2.78;100.00;101406.47;1745294;81;21796;-86
2022/02/10 23:44:12;;;;;;;47.70;32.15;;;;;;;2.74;100.00;101416.47;1704852;83;21067;-88
2022/02/10 23:46:38;;;;;;;48.68;32.78;;;;;;;2.71;100.00;101420.41;1702515;82;21067;-87
2022/02/10 23:49:06;;;;;;;48.13;31.52;;;;;;;2.70;100.00;101418.72;1682980;82;21035;-87
2022/02/10 23:51:46;;;;;;;46.25;30.80;;;;;;;2.70;100.00;101420.45;1729173;81;21557;-87
2022/02/10 23:54:05;;;;;;;48.90;32.60;;;;;;;2.70;100.00;101417.88;1718035;82;21036;-88
2022/02/10 23:56:41;;;;;;;49.70;34.30;;;;;;;2.70;100.00;101422.58;1666568;81;21008;-88
2022/02/10 23:59:13;;;;;;;50.33;35.23;;;;;;;2.71;100.00;101418.29;1733629;81;21154;-87
